Ds Blue Wave — A8YK2 — position and weather

sailwx.info

Track history (hours):
 
Tides and Currents Weather Stations Pressure Air Temp Water Temp Dewpoint Dewpoint Depression Visibility Wind Speed Wind Dir Waves Ship Positions

Ds Blue Wave

Last reported at 2015-May-22 09:29 UTC. Time now 2015-May-22 10:05 UTC.
Position N 31°22' E 121°35'.

Length 129 m; draft 6.3 m.

Type: Cargo ship. MMSI: 636092200.

Date/timePositionNaut miles runAvg speedWind from/ knotsBaromVisibWave heightAir tempDewpointWater temp
2015-May-22 09:29N 31°22' E 121°35'0 0.0
2015-May-22 08:25N 31°22' E 121°35'0 0.0
2015-May-22 07:31N 31°22' E 121°35'0 0.0
2015-May-22 06:25N 31°22' E 121°35'0 0.0
2015-May-22 05:31N 31°22' E 121°35'0 0.0
2015-May-22 04:31N 31°22' E 121°35'0 0.0
2015-May-22 03:31N 31°22' E 121°35'0 0.0
2015-May-22 02:31N 31°22' E 121°35'0 0.0
2015-May-22 01:31N 31°22' E 121°35'0 0.0
2015-May-22 00:31N 31°22' E 121°35'0 0.0
2015-May-21 23:31N 31°22' E 121°35'0 0.0
2015-May-21 22:19N 31°22' E 121°35'0 0.0
2015-May-21 21:31N 31°22' E 121°35'0 0.0
2015-May-21 20:31N 31°22' E 121°35'0 0.0
2015-May-21 19:31N 31°22' E 121°35'0 0.0
2015-May-21 18:31N 31°22' E 121°35'0 0.0
2015-May-21 17:28N 31°22' E 121°35'1 1.2
2015-May-21 16:33N 31°23' E 121°35'9 9.4
2015-May-21 15:33N 31°18' E 121°44'1515.2
2015-May-21 14:33N 31°07' E 121°56'43013.0
2015-May-20 05:23N 33°40' E 129°53'26212.6
2015-May-19 08:33N 34°37' E 135°01'1212.2
2015-May-19 07:33N 34°39' E 135°16'2 2.2
2015-May-19 06:29N 34°41' E 135°15'0 0.0
2015-May-19 05:29N 34°41' E 135°15'0 0.0
2015-May-19 04:29N 34°41' E 135°15'0 0.0
2015-May-19 03:23N 34°41' E 135°15'0 0.0
2015-May-19 02:23N 34°41' E 135°15'0 0.0
2015-May-19 01:29N 34°41' E 135°15'0 0.0
2015-May-19 00:29N 34°41' E 135°15'0 0.0
2015-May-18 23:29N 34°41' E 135°15'1 0.6
2015-May-18 22:33N 34°40' E 135°15'3 3.1
2015-May-18 21:33N 34°37' E 135°14'0 0.1
2015-May-18 20:33N 34°37' E 135°14'0 0.0
2015-May-18 19:27N 34°37' E 135°14'0 0.1
2015-May-18 18:33N 34°37' E 135°14'0 0.0
2015-May-18 17:33N 34°37' E 135°14'0 0.0
2015-May-18 16:27N 34°37' E 135°14'0 0.0
2015-May-18 15:33N 34°37' E 135°14'7 6.7
2015-May-18 14:33N 34°38' E 135°22'1 1.4
2015-May-18 13:31N 34°39' E 135°24'0 0.0
2015-May-18 12:31N 34°39' E 135°24'0 0.0
2015-May-18 11:19N 34°39' E 135°24'0 0.0
2015-May-18 10:31N 34°39' E 135°24'0 0.0
2015-May-18 09:31N 34°39' E 135°24'0 0.0
2015-May-18 08:25N 34°39' E 135°24'0 0.0
2015-May-18 06:25N 34°39' E 135°24'0 0.0
2015-May-18 05:31N 34°39' E 135°24'0 0.2
2015-May-18 04:33N 34°39' E 135°24'9 8.4
2015-May-18 03:31N 34°35' E 135°14'10 9.2
2015-May-18 02:28N 34°36' E 135°02'23511.7
2015-May-17 06:28N 33°56' E 130°23'1313.9
2015-May-17 05:33N 33°48' E 130°10'1514.5
2015-May-17 04:31N 33°41' E 129°54'27614.6
2015-May-16 09:33N 31°53' E 124°52'2612.9
2015-May-16 07:31N 31°42' E 124°23'4314.6
2015-May-16 04:33N 31°25' E 123°37'1515.1
2015-May-16 03:33N 31°19' E 123°20'1514.5
2015-May-16 02:33N 31°16' E 123°04'1413.6
2015-May-16 01:31N 31°11' E 122°48'2512.6
2015-May-15 23:32N 31°06' E 122°20'1110.8
2015-May-15 22:31N 31°12' E 122°09'1313.8
2015-May-15 21:34N 31°16' E 121°54'1413.6
2015-May-15 20:33N 31°21' E 121°39'4 4.3
2015-May-15 19:32N 31°23' E 121°35'0 0.0
2015-May-15 18:19N 31°23' E 121°35'0 0.0
2015-May-15 17:31N 31°23' E 121°35'0 0.0
2015-May-15 16:31N 31°23' E 121°35'0 0.0
2015-May-15 15:22N 31°23' E 121°35'0 0.0
2015-May-15 14:28N 31°23' E 121°35'0 0.0
2015-May-15 13:31N 31°23' E 121°35'0 0.0
2015-May-15 12:31N 31°23' E 121°35'0 0.1
2015-May-15 11:31N 31°23' E 121°35'0 0.0
2015-May-15 10:25N 31°23' E 121°35'0 0.0
2015-May-15 09:31N 31°23' E 121°35'0 0.0
2015-May-15 08:31N 31°23' E 121°35'0 0.0
2015-May-15 07:31N 31°23' E 121°35'0 0.0
2015-May-15 06:31N 31°23' E 121°35'0 0.0
2015-May-15 05:31N 31°23' E 121°35'0 0.0
2015-May-15 04:28N 31°23' E 121°35'1 1.4
2015-May-15 03:34N 31°22' E 121°36'9 9.3
2015-May-15 02:34N 31°17' E 121°45'1414.0
2015-May-15 01:33N 31°07' E 121°57'43010.1
2015-May-13 07:05N 33°40' E 129°53'713.6
2015-May-13 06:33N 33°44' E 130°00'  
Track history (hours):
 
Tides and Currents Weather Stations Pressure Air Temp Water Temp Dewpoint Dewpoint Depression Visibility Wind Speed Wind Dir Waves Ship Positions

Ds Blue Wave

Last reported at 2015-May-22 09:29 UTC. Time now 2015-May-22 10:05 UTC.
Position N 31°22' E 121°35'.

Length 129 m; draft 6.3 m.

Type: Cargo ship. MMSI: 636092200.

Date/timePositionNaut miles runAvg speedWind from/ knotsBaromVisibWave heightAir tempDewpointWater temp
2015-May-22 09:29N 31°22' E 121°35'0 0.0
2015-May-22 08:25N 31°22' E 121°35'0 0.0
2015-May-22 07:31N 31°22' E 121°35'0 0.0
2015-May-22 06:25N 31°22' E 121°35'0 0.0
2015-May-22 05:31N 31°22' E 121°35'0 0.0
2015-May-22 04:31N 31°22' E 121°35'0 0.0
2015-May-22 03:31N 31°22' E 121°35'0 0.0
2015-May-22 02:31N 31°22' E 121°35'0 0.0
2015-May-22 01:31N 31°22' E 121°35'0 0.0
2015-May-22 00:31N 31°22' E 121°35'0 0.0
2015-May-21 23:31N 31°22' E 121°35'0 0.0
2015-May-21 22:19N 31°22' E 121°35'0 0.0
2015-May-21 21:31N 31°22' E 121°35'0 0.0
2015-May-21 20:31N 31°22' E 121°35'0 0.0
2015-May-21 19:31N 31°22' E 121°35'0 0.0
2015-May-21 18:31N 31°22' E 121°35'0 0.0
2015-May-21 17:28N 31°22' E 121°35'1 1.2
2015-May-21 16:33N 31°23' E 121°35'9 9.4
2015-May-21 15:33N 31°18' E 121°44'1515.2
2015-May-21 14:33N 31°07' E 121°56'43013.0
2015-May-20 05:23N 33°40' E 129°53'26212.6
2015-May-19 08:33N 34°37' E 135°01'1212.2
2015-May-19 07:33N 34°39' E 135°16'2 2.2
2015-May-19 06:29N 34°41' E 135°15'0 0.0
2015-May-19 05:29N 34°41' E 135°15'0 0.0
2015-May-19 04:29N 34°41' E 135°15'0 0.0
2015-May-19 03:23N 34°41' E 135°15'0 0.0
2015-May-19 02:23N 34°41' E 135°15'0 0.0
2015-May-19 01:29N 34°41' E 135°15'0 0.0
2015-May-19 00:29N 34°41' E 135°15'0 0.0
2015-May-18 23:29N 34°41' E 135°15'1 0.6
2015-May-18 22:33N 34°40' E 135°15'3 3.1
2015-May-18 21:33N 34°37' E 135°14'0 0.1
2015-May-18 20:33N 34°37' E 135°14'0 0.0
2015-May-18 19:27N 34°37' E 135°14'0 0.1
2015-May-18 18:33N 34°37' E 135°14'0 0.0
2015-May-18 17:33N 34°37' E 135°14'0 0.0
2015-May-18 16:27N 34°37' E 135°14'0 0.0
2015-May-18 15:33N 34°37' E 135°14'7 6.7
2015-May-18 14:33N 34°38' E 135°22'1 1.4
2015-May-18 13:31N 34°39' E 135°24'0 0.0
2015-May-18 12:31N 34°39' E 135°24'0 0.0
2015-May-18 11:19N 34°39' E 135°24'0 0.0
2015-May-18 10:31N 34°39' E 135°24'0 0.0
2015-May-18 09:31N 34°39' E 135°24'0 0.0
2015-May-18 08:25N 34°39' E 135°24'0 0.0
2015-May-18 06:25N 34°39' E 135°24'0 0.0
2015-May-18 05:31N 34°39' E 135°24'0 0.2
2015-May-18 04:33N 34°39' E 135°24'9 8.4
2015-May-18 03:31N 34°35' E 135°14'10 9.2
2015-May-18 02:28N 34°36' E 135°02'23511.7
2015-May-17 06:28N 33°56' E 130°23'1313.9
2015-May-17 05:33N 33°48' E 130°10'1514.5
2015-May-17 04:31N 33°41' E 129°54'27614.6
2015-May-16 09:33N 31°53' E 124°52'2612.9
2015-May-16 07:31N 31°42' E 124°23'4314.6
2015-May-16 04:33N 31°25' E 123°37'1515.1
2015-May-16 03:33N 31°19' E 123°20'1514.5
2015-May-16 02:33N 31°16' E 123°04'1413.6
2015-May-16 01:31N 31°11' E 122°48'2512.6
2015-May-15 23:32N 31°06' E 122°20'1110.8
2015-May-15 22:31N 31°12' E 122°09'1313.8
2015-May-15 21:34N 31°16' E 121°54'1413.6
2015-May-15 20:33N 31°21' E 121°39'4 4.3
2015-May-15 19:32N 31°23' E 121°35'0 0.0
2015-May-15 18:19N 31°23' E 121°35'0 0.0
2015-May-15 17:31N 31°23' E 121°35'0 0.0
2015-May-15 16:31N 31°23' E 121°35'0 0.0
2015-May-15 15:22N 31°23' E 121°35'0 0.0
2015-May-15 14:28N 31°23' E 121°35'0 0.0
2015-May-15 13:31N 31°23' E 121°35'0 0.0
2015-May-15 12:31N 31°23' E 121°35'0 0.1
2015-May-15 11:31N 31°23' E 121°35'0 0.0
2015-May-15 10:25N 31°23' E 121°35'0 0.0
2015-May-15 09:31N 31°23' E 121°35'0 0.0
2015-May-15 08:31N 31°23' E 121°35'0 0.0
2015-May-15 07:31N 31°23' E 121°35'0 0.0
2015-May-15 06:31N 31°23' E 121°35'0 0.0
2015-May-15 05:31N 31°23' E 121°35'0 0.0
2015-May-15 04:28N 31°23' E 121°35'1 1.4
2015-May-15 03:34N 31°22' E 121°36'9 9.3
2015-May-15 02:34N 31°17' E 121°45'1414.0
2015-May-15 01:33N 31°07' E 121°57'43010.1
2015-May-13 07:05N 33°40' E 129°53'713.6
2015-May-13 06:33N 33°44' E 130°00'  

Dump ship's entire track history